METAR Data
IDs: Format: Raw Decoded Include TAF

Data at: 1609 UTC 24 Aug 2019

PAMD 241608Z AUTO 09004KT 4SM BR BKN006 13/13 A2960 RMK AO2
PAMD 241602Z AUTO 00000KT 3SM BR SCT006 13/13 A2960 RMK AO2
PAMD 241559Z AUTO VRB03KT 2 1/2SM BR FEW006 13/13 A2960 RMK AO2
PAMD 241551Z AUTO 02003KT 2 1/2SM BR CLR 13/13 A2960 RMK AO2 SLP012 T01280128
PAMD 241549Z AUTO 01003KT 2SM BR CLR 13/13 A2959 RMK AO2
PAMD 241539Z AUTO 01005KT 1 1/4SM BR FEW002 13/12 A2959 RMK AO2 VIS 1/4V2 1/2
PAMD 241534Z AUTO 12006KT 2SM BR SCT002 13/13 A2959 RMK AO2 VIS 1 1/2V4
PAMD 241531Z AUTO 12006KT 1 1/4SM BR SCT002 13/13 A2959 RMK AO2
PAMD 241519Z AUTO 12007KT 1 3/4SM BR OVC002 13/13 A2958 RMK AO2 VIS 1V4
PAMD 241516Z AUTO 13007KT 2SM BR OVC002 13/13 A2958 RMK AO2 VIS 1V4
PAMD 241512Z AUTO 14007KT 1 1/2SM BR OVC002 13/13 A2958 RMK AO2
PAMD 241509Z AUTO 13008KT 2SM BR OVC002 13/13 A2958 RMK AO2
PAMD 241457Z AUTO 14007KT 1 1/4SM BR OVC002 13/13 A2958 RMK AO2 VIS 3/4V2 1/2
PAMD 241451Z AUTO 14006KT 3/4SM BR OVC002 12/12 A2957 RMK AO2 SLP005 T01220122 53006
PAMD 241449Z AUTO 15006KT 1/2SM FG OVC002 12/12 A2957 RMK AO2
PAMD 241409Z AUTO 14004KT 1/4SM FG BKN002 13/13 A2957 RMK AO2
PAMD 241401Z AUTO 15004KT 1/2SM FG VV002 13/13 A2957 RMK AO2
PAMD 241351Z AUTO 17005KT 1/2SM FG CLR 13/13 A2957 RMK AO2 SLP003 T01280128
PAMD 241348Z AUTO 17006KT 1/2SM FG CLR 13/12 A2957 RMK AO2
PAMD 241341Z AUTO 17004KT 1/2SM FG VV002 12/12 A2957 RMK AO2
PAMD 241338Z AUTO 17005KT 3/4SM BR VV002 13/12 A2957 RMK AO2
PAMD 241336Z AUTO 17005KT 1SM BR VV002 13/12 A2956 RMK AO2
PAMD 241332Z AUTO 17005KT 1 1/2SM BR FEW002 13/13 A2956 RMK AO2
PAMD 241330Z AUTO 17006KT 1SM BR VV002 13/13 A2956 RMK AO2
PAMD 241326Z AUTO 17006KT 3/4SM BR VV002 13/12 A2956 RMK AO2
PAMD 241313Z AUTO 17006KT 1/2SM FG VV002 13/13 A2956 RMK AO2
PAMD 241311Z AUTO 17006KT 1/2SM FG CLR 13/13 A2956 RMK AO2
PAMD 241306Z AUTO 17006KT 3/4SM BR CLR 13/13 A2956 RMK AO2
PAMD 241251Z AUTO 17006KT 1/2SM FG CLR 13/13 A2956 RMK AO2 SLP000 T01280128
PAMD 241247Z AUTO 17006KT 3/4SM BR CLR 13/13 A2956 RMK AO2
PAMD 241239Z AUTO 18007KT 1/2SM FG CLR 13/12 A2956 RMK AO2
PAMD 241235Z AUTO 18007KT 3/4SM BR CLR 13/12 A2956 RMK AO2
PAMD 241233Z AUTO 18007KT 1SM BR CLR 13/12 A2956 RMK AO2
PAMD 241231Z AUTO 18006KT 1 1/4SM BR CLR 13/12 A2956 RMK AO2
PAMD 241229Z AUTO 18006KT 2SM BR CLR 13/13 A2956 RMK AO2
PAMD 241151Z AUTO 20006KT 9SM CLR 13/13 A2956 RMK AO2 SLP999 T01330128 10139 20122 53004
PAMD 241123Z AUTO 20006KT 3SM BR CLR 13/12 A2955 RMK AO2
PAMD 241119Z AUTO 19007KT 2 1/2SM BR CLR 13/12 A2955 RMK AO2
PAMD 241051Z AUTO 20006KT 8SM CLR 13/12 A2955 RMK AO2 SLP998 T01280122
PAMD 240951Z AUTO 21007KT 7SM CLR 13/13 A2955 RMK AO2 SLP996 T01280128
PAMD 240851Z AUTO 23006KT 9SM CLR 13/12 A2954 RMK AO2 SLP995 T01330122 51008
PAMD 240751Z AUTO 23006KT 5SM BR CLR 13/12 A2954 RMK AO2 SLP993 T01330122 401780117
PAMD 240651Z AUTO 21005KT 6SM BR CLR 13/12 A2953 RMK AO2 SLP990 T01330117
PAMD 240551Z AUTO 24006KT 3SM BR CLR 13/13 A2952 RMK AO2 SLP988 T01330128 10172 20133 53006
PAMD 240548Z AUTO 24006KT 3SM BR CLR 13/13 A2952 RMK AO2
PAMD 240536Z AUTO 24006KT 2 1/2SM BR CLR 13/12 A2952 RMK AO2
PAMD 240451Z AUTO 18003KT 10SM CLR 16/04 A2951 RMK AO2 SLP983 T01560039
PAMD 240351Z AUTO 00000KT 4SM HZ CLR 15/12 A2951 RMK AO2 SLP982 T01500122
PAMD 240251Z AUTO VRB03KT 4SM HZ CLR 16/13 A2950 RMK AO2 SLP982 T01610128 52004
PAMD 240151Z AUTO VRB03KT 5SM HZ CLR 17/12 A2950 RMK AO2 SLP980 T01670117
PAMD 240051Z AUTO 26007KT 4SM HZ CLR 17/12 A2950 RMK AO2 SLP980 T01670117
PAMD 232351Z AUTO 27005KT 8SM CLR 18/12 A2949 RMK AO2 SLP978 T01780117 10178 20144 53005
PAMD 232251Z AUTO 28005KT 10SM CLR 17/12 A2949 RMK AO2 SLP975 T01720117
PAMD 232151Z AUTO 29007KT 10SM CLR 17/11 A2948 RMK AO2 SLP974 T01670111
PAMD 232051Z AUTO 29006KT 10SM CLR 16/12 A2948 RMK AO2 SLP973 T01610117 51006
PAMD 231951Z AUTO 30006KT 8SM CLR 15/13 A2947 RMK AO2 SLP972 T01500128
PAMD 231851Z AUTO 29007KT 8SM CLR 15/12 A2947 RMK AO2 SLP970 T01500122
PAMD 231751Z AUTO 29009KT 8SM CLR 14/12 A2946 RMK AO2 SLP967 T01440122 10144 20117 51002
PAMD 231651Z AUTO 28010G15KT 9SM CLR 13/12 A2946 RMK AO2 SLP966 T01330117
PAMD 231551Z AUTO 28013G17KT 10SM CLR 13/11 A2946 RMK AO2 SLP966 T01330111
PAMD 231451Z AUTO 29014KT 10SM CLR 13/10 A2945 RMK AO2 SLP964 T01280100 56007
PAMD 231351Z AUTO 28013G17KT 10SM CLR 12/11 A2946 RMK AO2 SLP966 T01220106
PAMD 231251Z AUTO 27010KT 10SM CLR 12/11 A2947 RMK AO2 SLP969 T01220111
PAMD 231151Z AUTO 29007KT 10SM CLR 12/10 A2947 RMK AO2 SLP971 70009 T01170100 10122 20117 58010
PAMD 231051Z AUTO 30004KT 10SM CLR 12/11 A2949 RMK AO2 SLP978 T01220106
PAMD 230951Z AUTO 35004KT 10SM CLR 12/11 A2951 RMK AO2 SLP983 T01220106
PAMD 230851Z AUTO 04007KT 10SM CLR 12/09 A2950 RMK AO2 SLP982 T01220094 55001
PAMD 230751Z AUTO 06009KT 10SM CLR 12/10 A2950 RMK AO2 SLP981 T01220100 401440111
PAMD 230651Z AUTO 07013KT 10SM CLR 12/10 A2950 RMK AO2 SLP980 T01220100
PAMD 230551Z AUTO 07015KT 10SM CLR 12/10 A2951 RMK AO2 SLP983 60000 T01220100 10144 20122 55004
PAMD 230515Z AUTO 07016G24KT 10SM SCT017 12/10 A2951 RMK AO2
PAMD 230451Z AUTO 07021G25KT 10SM SCT017 BKN027 OVC048 13/11 A2950 RMK AO2 PK WND 06026/0432 RAB30E49 SLP982 P0000 T01280106
PAMD 230438Z AUTO 07021G26KT 7SM -RA SCT017 SCT027 OVC048 13/11 A2951 RMK AO2 PK WND 06026/0432 RAB30 P0000